Coos Bay, OR

12:30 AM PDT on May 30, 2015 (GMT -0700)
Barview | | Change Station
CLOSE
Current Station
Personal Weather Station
Location: Coos Bay, OR
Elevation: 72 ft
Nearby Weather Stations

Elev 72 ft 43.35 °N, 124.31 °W | Updated 24 seconds ago

Overcast
Overcast
55.9 °F
Feels Like 55.9 °F
N
2.9
Wind Variable Wind from West
Gusts 2.9 mph

Today
High -- | Low -- °F
--% Chance of Precip.
Yesterday
High -- | Low -- °F
Precip. -- in
5:41 AM 8:49 PM
Waxing Gibbous, 88% visible
Pressure 30.03 in
Visibility 10.0 miles
Clouds Overcast 1200 ft
Dew Point 38 °F
Humidity 51%
Rainfall 0.00 in
Snow Depth Not available.
UV 0 out of 12
Pollen 7.30 out of 12
Air Quality Not available.
Flu Activity Sporadic
METAR KOTH 300715Z 36009KT 10SM OVC012 12/11 A3003 RMK AO1

More Conditions Fewer Conditions

Pressure 30.03 in
Visibility 10.0 miles
Clouds Overcast 1200 ft
Dew Point 38 °F
Humidity 51%
Rainfall 0.00 in
Snow Depth Not available.
UV 0 out of 12
Pollen 7.30 out of 12
Air Quality Not available.
Flu Activity Sporadic
METAR KOTH 300715Z 36009KT 10SM OVC012 12/11 A3003 RMK AO1

More Conditions Fewer Conditions

10-Day Weather Forecast

Almanac

Astronomy

May. 30, 2015 Rise Set
Actual Time
Civil Twilight
Nautical Twilight
Astronomical Twilight
Moon
Length of Visible Light
Length of Day
Tomorrow will be .
, % of the Moon is Illuminated

Today's Extremes

State Highs State Lows

Community

WunderPhotos

Upload Photos

1,825,470 photos uploaded!

WunderBlogs® & News

Nearby

Air Quality

  Air Quality AQ Index Pollutant
Not available.

Snow Depth

Station Depth Elevation

Earthquake Activity

City Distance Mag. Time & Date
Minimum magnitude displayed is 2.5.

Coastal Water Temperatures

Place Temperature

Stations

Nearby Weather Stations

Station Location Temp. Windchill Dew Point Humidity Wind Precip. Elev Updated Type